Orkney, United Kingdom
Current Conditions -  °F | °C
As of 8:50 AM on Friday 21 Nov 2014 (Local Time) from EGPA Reporting Station
Few Clouds Few Clouds  
Wind Chill: 43°   Ceiling: Unl
Heat Index: 48°   Visibility: 6mi
Dew Point: 43°   Wind: 13mph
Humidity: 82%   Direction: 130°SE
Pressure: 30.21"   Gusts: NA
Location:  59.16°N, 2.77°W
Report Text: EGPA 210850Z 13011KT 9999 FEW013 09/06 Q1023
Loading
Personal Weather Stations






























Interactive Weather Map New forecast layout! Learn more

10-Day Weather Forecast

Advertisements
Track Severe Weather on mobile